This is the latest recevied weather packets stored in our database for station/object K5OLV. If no packets are shown the sender has not sent any weather packets the latest 10 day(s).
| Time | Temp. | Humidity | Pressure | Rain* | Wind** | Luminosity | Snow |
|---|---|---|---|---|---|---|---|
| 1777644573 | 12.22° C | 78% | 1012.8 hPa | 0 mm | - | 531 W/m² | - |
| 1777644268 | 11.67° C | 78% | 1012.6 hPa | 0 mm | - | 345 W/m² | - |
| 1777643965 | 12.22° C | 78% | 1012.4 hPa | 0 mm | - | 510 W/m² | - |
| 1777643662 | 11.67° C | 79% | 1012.1 hPa | 0 mm | - | 339 W/m² | - |
| 1777643360 | 11.67° C | 77% | 1012.3 hPa | 0 mm | - | 257 W/m² | - |
| 1777643056 | 12.22° C | 75% | 1012 hPa | 0 mm | - | 238 W/m² | - |
| 1777642752 | 12.22° C | 77% | 1012.1 hPa | 0 mm | - | 247 W/m² | - |
| 1777642450 | 13.89° C | 74% | 1012 hPa | 0 mm | - | 308 W/m² | - |
| 1777642146 | 13.89° C | 66% | 1012 hPa | 0 mm | - | 417 W/m² | - |
| 1777641843 | 12.22° C | 74% | 1012.1 hPa | 0 mm | - | 296 W/m² | - |
| 1777641537 | 11.67° C | 75% | 1012 hPa | 0 mm | - | 312 W/m² | - |
| 1777641233 | 12.22° C | 73% | 1011.9 hPa | 0 mm | - | 349 W/m² | - |
| 1777640930 | 12.22° C | 72% | 1012 hPa | 0 mm | - | 307 W/m² | - |
| 1777640627 | 11.67° C | 71% | 1012 hPa | 0 mm | - | 227 W/m² | - |
| 1777640323 | 11.67° C | 72% | 1012.1 hPa | 0 mm | - | 166 W/m² | - |
| 1777640019 | 11.67° C | 70% | 1012.4 hPa | 0 mm | - | 239 W/m² | - |
| 1777639716 | 11.67° C | 71% | 1012.4 hPa | 0 mm | - | 196 W/m² | - |
| 1777639415 | 11.11° C | 72% | 1012.2 hPa | 0 mm | - | 178 W/m² | - |
| 1777639114 | 10.56° C | 73% | 1012.2 hPa | 0 mm | - | 159 W/m² | - |
| 1777638807 | 10.56° C | 72% | 1012 hPa | 0 mm | - | 113 W/m² | - |
| 1777638507 | 10° C | 74% | 1012 hPa | 0 mm | - | 134 W/m² | - |
| 1777638204 | 9.44° C | 77% | 1011.9 hPa | 0 mm | - | 67 W/m² | - |
| 1777637900 | 10° C | 76% | 1011.9 hPa | 0 mm | - | 58 W/m² | - |
| 1777637596 | 10° C | 76% | 1011.9 hPa | 0 mm | - | 66 W/m² | - |
| 1777637294 | 10° C | 75% | 1011.5 hPa | 0 mm | - | 56 W/m² | - |
* Rain latest hour (hover to see other rain measurements)
** Current wind speed in m/s (hover to see current wind gust speed)